Time;durP1;ratioP1;P1;durP2;ratioP2;P2;SDS_P1;SDS_P2;PMS_P1;PMS_P2;Temp;Humidity;BMP_temperature;BMP_pressure;BME280_temperature;BME280_humidity;BME280_pressure;Samples;Min_cycle;Max_cycle;Signal;HPM_P1;HPM_P2
2022/01/21 05:30:48;;;;;;;;;6.25;2.25;;;;;6.61;62.48;103281.03;5061175;27;45523;-77
2022/01/21 05:33:13;;;;;;;;;1.50;1.00;;;;;6.55;63.80;103274.75;5055174;28;45417;-77
2022/01/21 05:35:39;;;;;;;;;6.00;6.00;;;;;6.57;63.07;103279.22;5055355;28;45394;-77
2022/01/21 05:38:04;;;;;;;;;4.00;1.75;;;;;6.59;63.48;103279.22;5055143;28;47512;-77
2022/01/21 05:40:30;;;;;;;;;6.75;3.50;;;;;6.61;64.14;103281.03;5058182;28;45390;-77
2022/01/21 05:42:56;;;;;;;;;6.75;4.00;;;;;6.59;64.18;103280.13;5058253;28;45205;-76
2022/01/21 05:48:05;;;;;;;;;6.00;3.50;;;;;6.67;62.28;103285.53;5055415;28;45794;-76
2022/01/21 05:50:30;;;;;;;;;7.00;2.75;;;;;6.65;62.07;103289.94;5055533;28;45581;-77
2022/01/21 05:52:56;;;;;;;;;7.25;2.00;;;;;6.65;62.13;103289.94;5055719;28;45212;-76
2022/01/21 05:55:22;;;;;;;;;2.75;2.00;;;;;6.58;62.26;103291.66;5036894;28;46018;-78
2022/01/21 05:57:48;;;;;;;;;9.50;5.00;;;;;6.62;62.03;103298.84;5036561;28;46906;-76
2022/01/21 06:00:14;;;;;;;;;8.00;5.25;;;;;6.60;62.14;103305.91;5054948;28;45166;-76
2022/01/21 06:02:39;;;;;;;;;0.50;0.00;;;;;6.52;62.12;103291.59;5055293;28;45572;-75
2022/01/21 06:05:05;;;;;;;;;9.00;2.50;;;;;6.59;62.46;103300.56;5054778;28;45474;-76
2022/01/21 06:07:31;;;;;;;;;10.50;2.50;;;;;6.51;62.33;103296.91;5054533;28;47912;-76
2022/01/21 06:09:57;;;;;;;;;6.00;5.00;;;;;6.59;62.57;103308.56;5054984;28;45404;-76
2022/01/21 06:12:22;;;;;;;;;5.00;5.00;;;;;6.56;62.99;103306.75;5058256;28;45590;-76
2022/01/21 06:14:48;;;;;;;;;7.25;3.00;;;;;6.62;62.62;103313.94;5054829;28;45527;-74
2022/01/21 06:17:14;;;;;;;;;3.75;3.00;;;;;6.53;62.94;103292.50;5055513;28;46427;-78
2022/01/21 06:19:40;;;;;;;;;6.25;5.00;;;;;6.70;63.59;103313.13;5055014;28;45316;-78
2022/01/21 06:22:06;;;;;;;;;3.00;3.00;;;;;6.71;62.18;103311.38;5036835;28;45547;-76
2022/01/21 06:24:32;;;;;;;;;6.50;3.00;;;;;6.72;62.68;103311.34;5056581;28;45367;-79
2022/01/21 06:27:01;;;;;;;;;6.00;4.25;;;;;6.77;62.19;103311.44;5055149;28;45457;-74
2022/01/21 06:29:27;;;;;;;;;6.25;2.25;;;;;6.74;62.42;103304.28;5053308;28;45458;-76
2022/01/21 06:31:52;;;;;;;;;2.75;2.00;;;;;6.78;62.66;103307.88;5053933;28;45401;-77
2022/01/21 06:34:18;;;;;;;;;6.50;2.00;;;;;6.78;62.88;103302.56;5052728;28;45580;-75
2022/01/21 06:36:43;;;;;;;;;3.00;3.00;;;;;6.82;62.77;103301.69;5035046;28;46531;-76
2022/01/21 06:39:09;;;;;;;;;5.50;3.50;;;;;6.84;62.92;103305.28;5054088;28;45375;-77
2022/01/21 06:41:34;;;;;;;;;5.25;3.00;;;;;6.87;63.12;103310.66;5054807;28;45430;-77
2022/01/21 06:44:01;;;;;;;;;6.00;3.50;;;;;6.79;62.39;103293.69;5054146;28;45391;-82
2022/01/21 06:46:26;;;;;;;;;4.25;3.00;;;;;6.89;62.28;103300.88;5036542;28;48311;-73
2022/01/21 06:48:51;;;;;;;;;3.00;3.00;;;;;6.95;62.46;103314.28;5054049;28;45443;-73
2022/01/21 06:51:17;;;;;;;;;7.25;5.50;;;;;6.96;62.01;103318.75;5054871;28;45267;-73
2022/01/21 06:53:42;;;;;;;;;6.50;5.25;;;;;6.98;63.42;103324.97;5053952;28;45287;-74
2022/01/21 06:56:07;;;;;;;;;2.25;2.25;;;;;7.01;62.89;103324.13;5054257;28;45445;-73
2022/01/21 06:58:33;;;;;;;;;4.00;3.00;;;;;6.98;62.65;103314.31;5053824;28;45423;-72
2022/01/21 07:00:59;;;;;;;;;9.00;4.25;;;;;7.04;62.20;103329.50;5053580;28;45338;-73
2022/01/21 07:03:24;;;;;;;;;5.75;3.25;;;;;6.97;61.36;103311.66;5035521;28;45295;-72
2022/01/21 07:05:50;;;;;;;;;4.75;3.50;;;;;7.06;61.74;103333.94;5053633;28;46190;-71
2022/01/21 07:08:16;;;;;;;;;5.75;3.25;;;;;7.04;61.22;103335.72;5054019;28;45508;-70
2022/01/21 07:10:42;;;;;;;;;6.50;3.00;;;;;6.98;61.73;103335.63;5054741;28;45354;-72
2022/01/21 07:13:08;;;;;;;;;7.25;4.25;;;;;6.99;61.29;103344.53;5053662;28;45543;-74
2022/01/21 07:15:33;;;;;;;;;3.50;2.50;;;;;6.97;61.53;103346.31;5054171;28;45811;-74
2022/01/21 07:17:59;;;;;;;;;4.25;4.25;;;;;6.94;62.13;103348.94;5053338;28;45640;-72
2022/01/21 07:20:24;;;;;;;;;3.50;3.50;;;;;6.95;62.38;103353.41;5052183;28;45373;-71
2022/01/21 07:22:50;;;;;;;;;6.00;4.25;;;;;6.97;63.66;103354.31;5051063;28;45439;-72
2022/01/21 07:25:15;;;;;;;;;6.50;4.25;;;;;6.96;62.18;103345.41;5053749;28;46159;-72
2022/01/21 07:27:42;;;;;;;;;8.25;3.00;;;;;7.01;62.28;103346.34;5053471;28;45452;-72
2022/01/21 07:30:09;;;;;;;;;7.00;3.00;;;;;7.03;62.17;103349.03;5054015;28;45205;-71
2022/01/21 07:32:34;;;;;;;;;6.00;4.00;;;;;7.04;61.44;103364.16;5030665;28;45488;-72
2022/01/21 07:35:00;;;;;;;;;5.00;5.00;;;;;7.00;62.18;103365.00;5050554;28;46736;-71
2022/01/21 07:37:25;;;;;;;;;3.00;3.00;;;;;6.98;62.01;103366.75;5052455;28;45413;-72
2022/01/21 07:39:50;;;;;;;;;3.00;3.00;;;;;6.90;61.77;103357.75;5053418;28;45419;-71
2022/01/21 07:42:16;;;;;;;;;7.00;3.75;;;;;6.87;62.07;103363.97;5055609;28;46112;-72
2022/01/21 07:44:41;;;;;;;;;4.00;4.00;;;;;6.87;62.15;103369.31;5046199;28;45788;-70
2022/01/21 07:47:07;;;;;;;;;12.50;6.75;;;;;6.79;62.00;103360.34;5059108;28;45599;-71
2022/01/21 07:49:32;;;;;;;;;6.00;6.00;;;;;6.74;62.36;103368.25;5054171;28;45419;-73
2022/01/21 07:51:58;;;;;;;;;6.75;6.50;;;;;6.72;62.54;103370.00;5057383;28;45512;-71
2022/01/21 07:54:23;;;;;;;;;7.00;5.25;;;;;6.75;62.68;103379.81;5056226;28;45537;-71
2022/01/21 07:56:49;;;;;;;;;5.25;5.25;;;;;6.69;62.60;103386.00;5056350;28;45375;-74
2022/01/21 07:59:16;;;;;;;;;9.25;5.25;;;;;6.67;62.82;103382.41;5055885;28;45510;-73
2022/01/21 08:01:42;;;;;;;;;6.75;5.25;;;;;6.70;62.54;103395.78;5055427;28;45468;-73
2022/01/21 08:04:09;;;;;;;;;6.75;4.00;;;;;6.62;62.77;103376.13;5056284;28;46340;-71
2022/01/21 08:06:35;;;;;;;;;5.75;5.75;;;;;6.68;62.74;103385.97;5055927;28;45248;-72
2022/01/21 08:09:01;;;;;;;;;8.00;5.50;;;;;6.71;62.89;103389.56;5055149;28;45304;-73
2022/01/21 08:11:26;;;;;;;;;7.50;4.00;;;;;6.71;62.96;103394.00;5056085;28;45498;-71
2022/01/21 08:13:52;;;;;;;;;6.75;5.50;;;;;6.71;62.51;103400.25;5055840;28;46451;-73
2022/01/21 08:16:18;;;;;;;;;6.00;6.00;;;;;6.69;62.84;103393.09;5055983;28;45453;-70
2022/01/21 08:18:44;;;;;;;;;6.75;5.25;;;;;6.75;62.92;103404.72;5056422;28;45414;-71
2022/01/21 08:21:10;;;;;;;;;6.75;5.75;;;;;6.61;62.98;103384.09;5069261;28;45342;-75
2022/01/21 08:23:36;;;;;;;;;7.75;6.00;;;;;6.68;62.92;103391.28;5057047;28;46178;-71
2022/01/21 08:26:02;;;;;;;;;6.50;6.50;;;;;6.76;62.49;103402.94;5038285;28;45265;-73
2022/01/21 08:28:27;;;;;;;;;13.75;8.00;;;;;6.79;63.04;103409.22;5056641;28;45517;-72
2022/01/21 08:30:52;;;;;;;;;5.25;5.25;;;;;6.71;62.72;103400.25;5055368;28;45584;-76
2022/01/21 08:33:18;;;;;;;;;7.25;5.75;;;;;6.71;62.98;103394.00;5055160;28;45363;-71
2022/01/21 08:35:43;;;;;;;;;9.25;6.00;;;;;6.77;63.06;103389.63;5050251;28;45456;-71
2022/01/21 08:38:08;;;;;;;;;6.00;4.75;;;;;6.68;62.85;103378.88;5052940;28;45849;-72
2022/01/21 08:40:34;;;;;;;;;8.25;6.00;;;;;6.82;62.54;103395.00;5052825;28;46120;-71
2022/01/21 08:43:00;;;;;;;;;7.25;6.75;;;;;6.84;62.91;103399.50;5053338;28;45963;-72
2022/01/21 08:45:29;;;;;;;;;6.75;6.00;;;;;6.84;62.34;103406.59;5053587;28;45413;-71
2022/01/21 08:47:54;;;;;;;;;5.50;5.00;;;;;6.86;62.83;103401.28;5053883;28;46013;-70
2022/01/21 08:50:20;;;;;;;;;9.75;8.00;;;;;6.84;62.53;103403.94;5054059;28;45568;-69
2022/01/21 08:52:47;;;;;;;;;7.00;6.25;;;;;6.89;62.95;103404.88;5053058;28;46190;-72
2022/01/21 08:55:16;;;;;;;;;9.25;7.00;;;;;6.88;62.53;103404.88;5053970;28;45445;-70
2022/01/21 08:57:43;;;;;;;;;6.50;3.00;;;;;6.94;62.85;103410.28;5053811;28;45373;-71
2022/01/21 09:00:21;;;;;;;;;15.75;9.00;;;;;6.97;62.72;103407.66;5053747;28;45409;-70
2022/01/21 09:02:47;;;;;;;;;8.50;7.00;;;;;6.97;62.63;103395.22;5053411;28;45551;-71
2022/01/21 09:05:13;;;;;;;;;11.50;6.25;;;;;6.98;62.45;103401.41;5053827;28;45296;-70
2022/01/21 09:07:39;;;;;;;;;11.00;7.25;;;;;7.04;62.66;103407.75;5053837;28;46212;-71
2022/01/21 09:10:06;;;;;;;;;7.50;6.50;;;;;7.03;62.16;103410.38;5053855;28;45718;-72
2022/01/21 09:12:32;;;;;;;;;11.25;9.25;;;;;7.06;62.31;103411.28;5053217;28;46024;-70
2022/01/21 09:14:58;;;;;;;;;7.75;4.25;;;;;7.06;62.61;103413.97;5053866;28;45504;-70
2022/01/21 09:17:24;;;;;;;;;8.50;7.00;;;;;7.07;62.37;103414.84;5037673;28;45334;-71
2022/01/21 09:19:49;;;;;;;;;6.00;6.00;;;;;7.08;62.41;103411.31;5053577;28;45434;-70
2022/01/21 09:22:15;;;;;;;;;7.50;6.00;;;;;7.12;62.12;103416.72;5053698;28;46517;-71
2022/01/21 09:24:40;;;;;;;;;8.50;8.50;;;;;7.06;62.03;103421.09;5053254;28;45396;-70
2022/01/21 09:27:06;;;;;;;;;9.00;7.00;;;;;7.03;62.34;103424.63;5053598;28;45936;-70
2022/01/21 09:29:33;;;;;;;;;12.75;10.75;;;;;7.04;62.60;103423.75;5052174;28;45520;-70
2022/01/21 09:31:59;;;;;;;;;9.75;9.50;;;;;7.01;61.99;103422.78;5052482;28;45788;-71
2022/01/21 09:34:27;;;;;;;;;10.75;8.50;;;;;6.94;62.46;103423.59;5053206;28;45432;-73
2022/01/21 09:36:54;;;;;;;;;14.25;13.00;;;;;6.98;62.41;103442.31;5053627;28;45435;-69
2022/01/21 09:39:20;;;;;;;;;12.00;8.00;;;;;6.96;62.55;103444.09;5052883;27;45850;-72
2022/01/21 09:41:46;;;;;;;;;16.25;8.00;;;;;6.87;62.38;103445.75;5053102;28;45411;-71
2022/01/21 09:44:14;;;;;;;;;13.75;11.00;;;;;6.80;62.85;103445.66;5052829;28;45444;-70
2022/01/21 09:46:44;;;;;;;;;12.00;10.50;;;;;6.59;63.24;103426.72;5053315;28;45157;-76
2022/01/21 09:49:27;;;;;;;;;10.50;6.25;;;;;6.72;63.40;103451.78;5053726;28;45390;-76
2022/01/21 09:51:57;;;;;;;;;10.25;10.00;;;;;6.67;63.50;103464.13;5054081;28;46465;-75
2022/01/21 09:54:24;;;;;;;;;9.25;9.00;;;;;6.71;63.68;103468.66;5055243;28;45402;-76
2022/01/21 09:56:52;;;;;;;;;21.00;13.00;;;;;6.73;63.68;103472.22;5053254;28;45963;-74
2022/01/21 09:59:20;;;;;;;;;13.75;11.00;;;;;6.78;63.91;103465.19;5052940;28;45444;-74
2022/01/21 10:01:51;;;;;;;;;14.00;11.50;;;;;6.83;63.67;103458.13;5052731;28;46205;-74
2022/01/21 10:04:18;;;;;;;;;16.00;11.25;;;;;6.86;64.38;103457.28;5034048;28;45986;-75
2022/01/21 10:06:46;;;;;;;;;12.00;11.50;;;;;6.87;63.56;103459.97;5052266;28;45763;-75
2022/01/21 10:09:13;;;;;;;;;10.75;9.75;;;;;6.88;63.95;103453.78;5053133;28;45541;-75
2022/01/21 10:11:38;;;;;;;;;14.75;11.25;;;;;6.99;63.84;103470.78;5051545;28;45484;-76
2022/01/21 10:14:04;;;;;;;;;11.75;11.25;;;;;7.12;64.15;103477.19;5052886;28;45350;-74
2022/01/21 10:16:29;;;;;;;;;14.25;11.75;;;;;7.18;64.43;103463.91;5052474;28;45410;-74
2022/01/21 10:19:03;;;;;;;;;12.75;11.00;;;;;7.22;64.24;103466.63;5052897;28;45398;-74
2022/01/21 10:21:33;;;;;;;;;13.50;11.00;;;;;7.21;63.82;103462.19;5034228;28;47028;-74
2022/01/21 10:24:11;;;;;;;;;12.00;8.00;;;;;7.25;63.76;103460.41;5052731;28;45391;-73
2022/01/21 10:26:49;;;;;;;;;15.00;13.00;;;;;7.33;63.80;103469.41;5052591;28;47323;-72
2022/01/21 10:29:15;;;;;;;;;25.00;14.50;;;;;7.30;63.84;103455.16;5052209;28;45544;-74
2022/01/21 10:31:59;;;;;;;;;13.50;10.75;;;;;7.39;63.65;103471.25;5050336;28;45667;-74
2022/01/21 10:34:33;;;;;;;;;13.75;9.50;;;;;7.36;63.37;103458.78;5055603;28;45433;-74
2022/01/21 10:37:04;;;;;;;;;16.00;12.00;;;;;7.41;62.80;103465.03;5060940;28;45433;-72
2022/01/21 10:39:31;;;;;;;;;19.25;12.75;;;;;7.43;62.88;103468.63;5052820;28;45377;-73
2022/01/21 10:41:59;;;;;;;;;17.75;14.00;;;;;7.49;63.21;103473.13;5052651;28;45679;-73
2022/01/21 10:44:28;;;;;;;;;12.25;11.50;;;;;7.44;63.38;103453.50;5051144;28;45418;-74
2022/01/21 10:47:12;;;;;;;;;16.25;13.00;;;;;7.49;62.96;103467.78;5052525;28;45404;-73
2022/01/21 10:49:39;;;;;;;;;16.50;11.00;;;;;7.53;62.93;103462.50;5040624;28;45376;-73
2022/01/21 10:52:06;;;;;;;;;15.00;14.00;;;;;7.52;62.69;103463.38;5051899;28;46055;-74
2022/01/21 10:54:32;;;;;;;;;19.00;15.00;;;;;7.54;62.65;103466.97;5063568;28;45652;-73
2022/01/21 10:57:19;;;;;;;;;21.50;14.75;;;;;7.55;62.68;103467.88;5052624;28;47096;-74
2022/01/21 10:59:53;;;;;;;;;21.25;15.75;;;;;7.56;62.84;103464.31;5033871;28;45521;-74
2022/01/21 11:02:45;;;;;;;;;19.75;17.00;;;;;7.55;62.93;103462.53;5052325;28;47165;-73
2022/01/21 11:05:38;;;;;;;;;19.00;16.75;;;;;7.53;62.60;103456.28;5051998;28;45419;-73
2022/01/21 11:08:09;;;;;;;;;15.25;8.00;;;;;7.52;63.12;103458.06;5065999;28;45574;-73
2022/01/21 11:10:40;;;;;;;;;16.50;14.50;;;;;7.43;62.61;103455.28;5052398;28;45599;-74
2022/01/21 11:13:11;;;;;;;;;21.25;16.25;;;;;7.32;62.71;103450.69;5052726;28;45382;-74
2022/01/21 11:15:47;;;;;;;;;18.75;16.25;;;;;7.23;63.53;103456.81;5051787;28;45685;-72
2022/01/21 11:18:15;;;;;;;;;17.25;15.00;;;;;7.12;63.34;103447.84;5051834;28;45804;-75
2022/01/21 11:20:43;;;;;;;;;20.00;16.25;;;;;7.14;62.98;103456.75;5047564;28;45598;-74
2022/01/21 11:23:10;;;;;;;;;16.50;13.25;;;;;7.05;64.53;103457.53;5052230;28;45425;-72
2022/01/21 11:25:44;;;;;;;;;23.25;14.00;;;;;7.04;63.83;103460.19;5055690;28;46023;-75
2022/01/21 11:28:15;;;;;;;;;15.25;14.25;;;;;7.00;63.72;103461.91;5037955;28;45340;-75
2022/01/21 11:30:41;;;;;;;;;17.25;15.00;;;;;6.93;63.97;103440.47;5035800;28;45530;-76
2022/01/21 11:33:07;;;;;;;;;16.00;13.00;;;;;7.07;64.46;103453.09;5055265;28;46237;-72
2022/01/21 11:35:33;;;;;;;;;16.00;15.00;;;;;7.08;63.59;103448.66;5055218;28;45303;-72
2022/01/21 11:38:04;;;;;;;;;15.50;15.50;;;;;7.04;63.52;103442.41;5040583;28;45463;-75
2022/01/21 11:40:30;;;;;;;;;21.50;18.50;;;;;7.06;63.55;103447.78;5055609;28;45524;-72
2022/01/21 11:42:57;;;;;;;;;13.25;13.00;;;;;7.11;63.93;103443.38;5054374;28;46110;-72
2022/01/21 11:50:46;;;;;;;;;24.00;16.50;;;;;7.29;64.07;103445.34;5056623;28;45597;-75
2022/01/21 11:53:12;;;;;;;;;23.75;19.25;;;;;7.34;63.20;103443.63;5054934;28;45598;-70
2022/01/21 11:55:45;;;;;;;;;16.00;14.75;;;;;7.21;63.43;103422.16;5055100;28;45336;-74
2022/01/21 11:58:13;;;;;;;;;15.00;12.00;;;;;7.34;63.12;103427.59;5042793;28;45390;-76
2022/01/21 12:00:42;;;;;;;;;23.00;16.00;;;;;7.35;62.94;103424.94;5055431;28;45495;-73
2022/01/21 12:03:08;;;;;;;;;14.75;13.25;;;;;7.35;63.14;103430.28;5055311;28;46119;-74
2022/01/21 12:05:34;;;;;;;;;16.75;13.75;;;;;7.42;63.50;103437.47;5055104;28;45475;-74
2022/01/21 12:08:05;;;;;;;;;17.00;14.50;;;;;7.47;63.37;103435.75;5053715;28;45576;-72
2022/01/21 12:10:43;;;;;;;;;15.75;13.00;;;;;7.43;62.91;103419.69;5042333;28;45376;-75
2022/01/21 12:13:16;;;;;;;;;17.75;14.25;;;;;7.60;63.25;103437.66;5040907;28;47673;-74
2022/01/21 12:20:54;;;;;;;;;15.75;11.00;;;;;7.77;62.53;103443.16;5057079;28;45741;-78
2022/01/21 12:23:23;;;;;;;;;15.50;13.50;;;;;7.85;62.74;103443.22;5055341;28;45349;-75
2022/01/21 12:26:20;;;;;;;;;18.75;12.50;;;;;7.93;62.06;103434.38;5054727;28;45492;-75
2022/01/21 12:29:07;;;;;;;;;18.00;13.00;;;;;7.87;61.27;103402.28;5057686;28;45492;-77
2022/01/21 12:31:44;;;;;;;;;9.75;8.25;;;;;8.02;61.36;103408.63;5057310;28;46057;-77
2022/01/21 12:34:13;;;;;;;;;12.00;9.25;;;;;7.99;61.09;103404.16;5057804;28;45315;-78
2022/01/21 12:36:56;;;;;;;;;9.75;7.00;;;;;8.01;61.62;103402.38;5057826;28;45444;-78
2022/01/21 12:39:44;;;;;;;;;8.00;8.00;;;;;8.08;61.11;103409.53;5061712;28;45412;-77
2022/01/21 12:42:25;;;;;;;;;9.75;7.00;;;;;8.10;61.09;103405.13;5057091;28;45517;-79
2022/01/21 12:45:17;;;;;;;;;8.75;8.00;;;;;8.13;60.98;103405.16;5055617;28;46864;-77
2022/01/21 12:47:48;;;;;;;;;12.00;9.50;;;;;8.04;61.13;103375.69;5054841;28;45394;-78
2022/01/21 12:50:31;;;;;;;;;12.00;10.25;;;;;8.17;60.98;103406.94;5054619;28;45659;-74
2022/01/21 12:58:13;;;;;;;;;16.25;12.00;;;;;8.26;60.99;103407.00;5054217;28;45458;-75
2022/01/21 13:00:39;;;;;;;;;12.75;11.50;;;;;8.19;60.72;103393.59;5054419;28;45410;-75
2022/01/21 13:03:15;;;;;;;;;6.50;6.00;;;;;8.29;60.82;103395.44;5054326;28;45378;-75
2022/01/21 13:05:44;;;;;;;;;11.00;9.00;;;;;8.32;60.37;103399.09;5041899;28;46231;-74
2022/01/21 13:08:25;;;;;;;;;11.50;8.00;;;;;8.39;60.42;103393.75;5053757;28;45732;-74
2022/01/21 13:10:51;;;;;;;;;13.50;7.25;;;;;8.40;60.04;103384.84;5054307;28;45308;-75
2022/01/21 13:13:33;;;;;;;;;8.00;8.00;;;;;8.44;59.77;103395.56;5052990;28;45475;-75
2022/01/21 13:15:59;;;;;;;;;12.25;9.50;;;;;8.33;59.65;103371.47;5051281;28;46337;-75
2022/01/21 13:18:28;;;;;;;;;14.25;8.00;;;;;8.49;60.16;103391.16;5059300;28;45456;-75
2022/01/21 13:20:56;;;;;;;;;13.00;10.00;;;;;8.48;60.09;103384.00;5057373;28;45320;-75
2022/01/21 13:26:18;;;;;;;;;13.25;9.75;;;;;8.50;59.96;103374.22;5050789;28;46184;-72
2022/01/21 13:29:11;;;;;;;;;9.25;9.00;;;;;8.46;59.83;103366.16;5053735;28;45393;-75
2022/01/21 13:31:48;;;;;;;;;13.25;8.25;;;;;8.50;59.99;103358.19;5040981;28;45470;-74
2022/01/21 13:34:18;;;;;;;;;13.00;8.00;;;;;8.47;59.70;103344.78;5051720;28;45582;-73
2022/01/21 13:36:45;;;;;;;;;10.00;8.25;;;;;8.58;60.30;103356.44;5052450;28;46669;-75
2022/01/21 13:39:20;;;;;;;;;15.00;10.00;;;;;8.62;59.79;103355.53;5051103;28;45678;-72
2022/01/21 13:42:00;;;;;;;;;17.25;11.25;;;;;8.66;59.72;103361.81;5052281;28;45336;-74
2022/01/21 13:44:27;;;;;;;;;12.00;10.50;;;;;8.71;60.45;103341.31;5044095;28;45646;-74
2022/01/21 13:46:53;;;;;;;;;14.00;10.50;;;;;8.73;59.64;103339.53;5050650;28;45386;-75
2022/01/21 13:49:22;;;;;;;;;14.50;11.50;;;;;8.78;59.53;103339.53;5051327;28;45390;-77
2022/01/21 13:51:56;;;;;;;;;13.50;9.75;;;;;8.80;59.60;103345.78;5051962;28;45430;-74
2022/01/21 13:54:43;;;;;;;;;12.75;10.00;;;;;8.67;59.06;103323.50;5051092;28;45326;-73
2022/01/21 13:57:11;;;;;;;;;11.00;10.00;;;;;8.52;60.37;103315.38;5052083;28;45368;-75
2022/01/21 13:59:45;;;;;;;;;8.75;7.00;;;;;8.65;58.96;103331.50;5050243;28;45415;-79
2022/01/21 14:02:17;;;;;;;;;8.25;6.50;;;;;8.73;59.59;103344.88;5052578;28;45403;-74
2022/01/21 14:04:58;;;;;;;;;11.00;8.25;;;;;8.56;59.89;103323.44;5051848;28;45524;-75
2022/01/21 14:07:26;;;;;;;;;16.25;14.50;;;;;8.66;60.32;103349.34;5051586;28;45654;-75
2022/01/21 14:09:52;;;;;;;;;12.25;10.00;;;;;8.59;59.99;103343.97;5050807;28;45365;-74
2022/01/21 14:12:18;;;;;;;;;14.00;9.50;;;;;8.55;60.17;103347.50;5051455;28;45401;-75
2022/01/21 14:14:47;;;;;;;;;9.50;8.75;;;;;8.57;60.12;103349.28;5051163;28;45567;-74
2022/01/21 14:17:12;;;;;;;;;12.25;9.25;;;;;8.56;60.55;103330.56;5051764;28;45576;-73
2022/01/21 14:19:43;;;;;;;;;9.50;8.00;;;;;8.69;59.44;103345.75;5050831;28;45455;-75
2022/01/21 14:22:09;;;;;;;;;21.75;9.50;;;;;8.61;59.00;103312.75;5033886;28;45669;-76
2022/01/21 14:24:48;;;;;;;;;12.25;9.25;;;;;8.94;58.82;103344.03;5040741;28;46067;-75
2022/01/21 14:27:27;;;;;;;;;17.50;10.00;;;;;9.11;58.81;103344.97;5051226;28;45440;-76
2022/01/21 14:30:03;;;;;;;;;14.00;10.00;;;;;9.31;58.01;103336.97;5050946;28;45567;-75
2022/01/21 14:32:35;;;;;;;;;10.50;10.50;;;;;9.48;57.28;103343.22;4994864;28;1171524;-74
2022/01/21 14:35:15;;;;;;;;;9.25;9.00;;;;;9.56;57.15;103343.22;5031997;28;45588;-76
2022/01/21 14:37:47;;;;;;;;;10.50;9.00;;;;;9.70;56.79;103333.38;5032469;28;45371;-75
2022/01/21 14:40:15;;;;;;;;;11.25;8.00;;;;;9.72;56.12;103327.13;5032539;28;45374;-75
2022/01/21 14:42:42;;;;;;;;;7.75;7.75;;;;;9.77;56.00;103328.03;5032826;28;45412;-75
2022/01/21 14:45:17;;;;;;;;;9.75;9.50;;;;;9.82;55.64;103333.38;5032380;28;45550;-74
2022/01/21 14:47:43;;;;;;;;;12.50;8.00;;;;;9.88;55.68;103339.63;5032933;28;45692;-75
2022/01/21 14:50:16;;;;;;;;;9.75;6.25;;;;;9.97;55.47;103346.75;5032434;28;45377;-76
2022/01/21 14:52:45;;;;;;;;;10.25;8.50;;;;;9.92;55.94;103329.78;5032442;28;45676;-75
2022/01/21 14:55:13;;;;;;;;;14.00;11.00;;;;;10.08;56.10;103339.59;5032085;28;46016;-74
2022/01/21 14:57:52;;;;;;;;;12.50;10.25;;;;;10.28;56.17;103336.88;5032472;28;45512;-74
2022/01/21 15:00:25;;;;;;;;;13.00;11.50;;;;;10.42;54.63;103342.19;5038071;28;45517;-75
2022/01/21 15:03:02;;;;;;;;;10.00;9.00;;;;;10.39;54.62;103316.25;5035749;28;45511;-76
2022/01/21 15:05:28;;;;;;;;;10.75;10.00;;;;;10.66;54.18;103352.81;5027915;28;45873;-75
2022/01/21 15:07:54;;;;;;;;;11.75;11.00;;;;;10.65;53.66;103345.66;5036092;28;46182;-73
2022/01/21 15:10:29;;;;;;;;;11.75;10.50;;;;;10.51;53.59;103334.09;5035646;28;45446;-76
2022/01/21 15:15:51;;;;;;;;;8.50;7.75;;;;;10.68;53.44;103350.13;5035408;28;45493;-74
2022/01/21 15:18:17;;;;;;;;;9.75;8.75;;;;;10.65;53.28;103342.97;5035599;28;45533;-75
2022/01/21 15:20:45;;;;;;;;;11.50;9.75;;;;;10.75;53.13;103351.88;5035137;28;45407;-75
2022/01/21 15:23:12;;;;;;;;;8.00;8.00;;;;;10.75;52.97;103351.88;5035636;28;45352;-74
2022/01/21 15:25:39;;;;;;;;;10.00;8.00;;;;;10.62;53.20;103337.66;5034874;28;45564;-76
2022/01/21 15:28:06;;;;;;;;;8.75;7.50;;;;;10.66;52.95;103355.50;5035787;28;46255;-74
2022/01/21 15:30:32;;;;;;;;;9.75;8.50;;;;;10.61;53.13;103354.63;5034996;28;45497;-76
2022/01/21 15:32:59;;;;;;;;;7.50;5.75;;;;;10.50;53.03;103354.69;5054954;28;45398;-74
2022/01/21 15:35:25;;;;;;;;;9.00;7.00;;;;;10.34;52.81;103342.22;5055080;28;45636;-74
2022/01/21 15:37:51;;;;;;;;;6.75;5.00;;;;;10.15;53.07;103319.91;5054548;28;45506;-80
2022/01/21 15:40:18;;;;;;;;;5.75;4.75;;;;;10.16;54.22;103337.78;5054256;28;45399;-75
2022/01/21 15:42:44;;;;;;;;;5.25;4.75;;;;;9.91;54.07;103314.59;5055357;28;45386;-75
2022/01/21 15:45:11;;;;;;;;;12.50;5.50;;;;;9.97;54.14;103333.34;5055301;28;45462;-75
2022/01/21 15:47:37;;;;;;;;;5.50;5.50;;;;;9.92;54.71;103326.22;5039424;28;48369;-74
2022/01/21 15:50:06;;;;;;;;;6.25;5.50;;;;;9.77;54.16;103328.03;5055203;28;45402;-73
2022/01/21 15:52:32;;;;;;;;;5.25;5.25;;;;;9.73;54.57;103328.03;5055468;28;45668;-75
2022/01/21 15:54:57;;;;;;;;;9.50;5.00;;;;;9.61;54.31;103328.06;5058175;28;45573;-73
2022/01/21 15:57:23;;;;;;;;;6.50;5.00;;;;;9.54;54.88;103331.59;5055485;28;46216;-74
2022/01/21 15:59:49;;;;;;;;;7.25;7.00;;;;;9.43;54.69;103335.22;5039874;28;47155;-75
2022/01/21 16:02:14;;;;;;;;;5.00;5.00;;;;;9.31;54.92;103332.50;5054782;28;45688;-76
2022/01/21 16:04:39;;;;;;;;;6.75;6.25;;;;;9.23;55.41;103328.03;5045705;28;47008;-76
2022/01/21 16:07:06;;;;;;;;;8.00;7.50;;;;;9.15;55.54;103328.03;5054759;28;45571;-74
2022/01/21 16:09:31;;;;;;;;;7.25;5.00;;;;;9.05;56.12;103337.84;5052725;28;45415;-74
2022/01/21 16:11:56;;;;;;;;;8.25;5.00;;;;;9.01;55.86;103329.81;5055050;28;45742;-76
2022/01/21 16:14:22;;;;;;;;;8.00;7.75;;;;;8.87;56.59;103326.19;5054074;28;45374;-75
2022/01/21 16:16:48;;;;;;;;;7.00;4.75;;;;;8.88;56.46;103338.69;5054975;28;46094;-73
2022/01/21 16:19:15;;;;;;;;;11.50;8.75;;;;;8.73;57.10;103324.38;5036427;28;45991;-75
2022/01/21 16:21:44;;;;;;;;;9.25;5.25;;;;;8.72;57.23;103337.75;5055117;28;45552;-74
2022/01/21 16:24:10;;;;;;;;;8.75;6.25;;;;;8.63;56.98;103327.03;5054617;28;45419;-74
2022/01/21 16:26:37;;;;;;;;;4.75;3.75;;;;;8.60;57.35;103341.25;5054544;28;46551;-75
2022/01/21 16:29:04;;;;;;;;;5.25;4.50;;;;;8.54;57.71;103335.91;5054499;28;45426;-73
2022/01/21 16:31:30;;;;;;;;;8.00;5.50;;;;;8.44;57.35;103326.06;5055447;28;45830;-75
2022/01/21 16:33:55;;;;;;;;;7.50;5.25;;;;;8.43;57.92;103332.28;5054538;28;45564;-77
2022/01/21 16:36:20;;;;;;;;;5.50;5.50;;;;;8.39;58.23;103330.50;5054132;28;46779;-75
2022/01/21 16:38:47;;;;;;;;;4.00;4.00;;;;;8.19;57.87;103297.41;5055433;28;45360;-75
2022/01/21 16:41:13;;;;;;;;;5.50;5.25;;;;;8.09;58.33;103301.78;5065617;28;45582;-75
2022/01/21 16:43:39;;;;;;;;;7.00;5.00;;;;;8.28;58.60;103337.53;5060843;28;45715;-78
2022/01/21 16:46:04;;;;;;;;;6.50;6.00;;;;;8.27;58.39;103338.41;5059118;28;46172;-75
2022/01/21 16:48:30;;;;;;;;;7.00;5.00;;;;;8.25;58.64;103333.06;5062821;27;45418;-73
2022/01/21 16:50:57;;;;;;;;;10.00;4.50;;;;;8.21;58.43;103336.63;5054528;28;45324;-74
2022/01/21 16:53:23;;;;;;;;;5.00;2.25;;;;;8.14;58.73;103329.44;5055201;28;45437;-74
2022/01/21 16:55:49;;;;;;;;;11.00;4.75;;;;;8.12;58.65;103339.22;5053995;28;46234;-75
2022/01/21 16:58:14;;;;;;;;;4.75;3.75;;;;;8.01;59.31;103327.56;5054482;28;45728;-74
2022/01/21 17:00:40;;;;;;;;;8.75;4.50;;;;;8.04;59.38;103343.63;5054669;28;45466;-74
2022/01/21 17:03:05;;;;;;;;;5.25;5.25;;;;;8.04;58.96;103335.63;5054976;28;45436;-73
2022/01/21 17:05:31;;;;;;;;;9.00;4.00;;;;;7.91;59.37;103313.28;5053959;28;45307;-76
2022/01/21 17:07:58;;;;;;;;;6.50;4.00;;;;;8.00;59.42;103336.47;5054968;28;45428;-73
2022/01/21 17:10:25;;;;;;;;;3.25;3.25;;;;;7.98;59.56;103339.16;5054050;28;45524;-75
2022/01/21 17:12:51;;;;;;;;;9.00;7.00;;;;;7.93;59.36;103330.22;5063107;28;45616;-81
2022/01/21 17:15:18;;;;;;;;;6.00;5.00;;;;;7.98;59.32;103336.50;5040239;28;47822;-75
2022/01/21 17:17:43;;;;;;;;;2.75;2.75;;;;;7.85;59.79;103318.59;5055219;28;45477;-76
2022/01/21 17:20:10;;;;;;;;;8.00;5.00;;;;;7.95;59.83;103320.44;5058192;28;45684;-76
2022/01/21 17:22:36;;;;;;;;;6.25;3.00;;;;;7.95;59.54;103324.88;5061318;28;45398;-76
2022/01/21 17:25:01;;;;;;;;;6.33;5.33;;;;;7.93;59.68;103322.19;5054200;28;45593;-75
2022/01/21 17:27:26;;;;;;;;;7.75;5.25;;;;;7.92;59.84;103325.75;5053994;28;45385;-77